createdAt,value
2019-03-08T00:01:59.542Z,95228.18
2019-03-08T00:04:26.884Z,95222.98
2019-03-08T00:06:54.241Z,95223.78
2019-03-08T00:09:21.595Z,95229.58
2019-03-08T00:11:48.968Z,95233.45
2019-03-08T00:14:17.151Z,95246.61
2019-03-08T00:16:44.375Z,95243.19
2019-03-08T00:19:11.757Z,95246.44
2019-03-08T00:21:43.838Z,95254.73
2019-03-08T00:24:11.168Z,95268.27
2019-03-08T00:26:38.270Z,95266.64
2019-03-08T00:29:05.300Z,95285.33
2019-03-08T00:31:32.525Z,95265.05
2019-03-08T00:33:59.857Z,95277.34
2019-03-08T00:36:27.056Z,95277.33
2019-03-08T00:38:54.358Z,95276.69
2019-03-08T00:41:21.472Z,95280.39
2019-03-08T00:43:48.573Z,95284.75
2019-03-08T00:46:21.839Z,95291.87
2019-03-08T00:48:49.206Z,95289.11
2019-03-08T00:51:16.254Z,95287.14
2019-03-08T00:53:43.285Z,95289.89
2019-03-08T00:56:10.658Z,95288.77
2019-03-08T00:58:38.423Z,95289.75
2019-03-08T01:01:05.539Z,95289.92
2019-03-08T01:03:33.100Z,95295.27
2019-03-08T01:06:00.144Z,95289.46
2019-03-08T01:08:36.780Z,95291.25
2019-03-08T01:11:04.084Z,95298.40
2019-03-08T01:13:31.115Z,95291.28
2019-03-08T01:15:58.512Z,95297.25
2019-03-08T01:18:30.251Z,95296.28
2019-03-08T01:20:57.625Z,95295.17
2019-03-08T01:23:24.722Z,95295.34
2019-03-08T01:25:51.765Z,95296.45
2019-03-08T01:28:18.793Z,95299.67
2019-03-08T01:30:46.138Z,95297.89
2019-03-08T01:33:13.249Z,95296.73
2019-03-08T01:35:40.291Z,95297.19
2019-03-08T01:38:07.324Z,95295.35
2019-03-08T01:40:34.377Z,95302.30
2019-03-08T01:43:01.406Z,95304.27
2019-03-08T01:45:39.719Z,95296.22
2019-03-08T01:48:07.149Z,95305.34
2019-03-08T01:50:34.488Z,95305.85
2019-03-08T01:53:01.861Z,95306.37
2019-03-08T01:55:29.202Z,95303.46
2019-03-08T01:57:56.554Z,95300.70
2019-03-08T02:00:23.584Z,95304.61
2019-03-08T02:02:50.636Z,95311.92
2019-03-08T02:05:17.851Z,95302.36
2019-03-08T02:07:44.895Z,95306.41
2019-03-08T02:10:12.218Z,95304.14
2019-03-08T02:12:39.556Z,95290.03
2019-03-08T02:15:06.589Z,95295.22
2019-03-08T02:17:33.876Z,95303.96
2019-03-08T02:20:00.909Z,95307.82
2019-03-08T02:22:28.320Z,95306.20
2019-03-08T02:24:55.632Z,95308.43
2019-03-08T02:27:22.987Z,95321.52
2019-03-08T02:29:50.025Z,95314.68
2019-03-08T02:32:17.315Z,95316.27
2019-03-08T02:34:44.350Z,95323.22
2019-03-08T02:37:11.392Z,95322.09
2019-03-08T02:39:38.737Z,95327.13
2019-03-08T02:42:06.076Z,95319.03
2019-03-08T02:44:33.105Z,95320.69
2019-03-08T02:47:00.157Z,95313.59
2019-03-08T02:49:27.530Z,95318.80
2019-03-08T02:51:54.885Z,95319.15
2019-03-08T02:54:22.460Z,95316.03
2019-03-08T02:56:49.815Z,95321.20
2019-03-08T02:59:16.853Z,95312.42
2019-03-08T03:01:44.220Z,95315.45
2019-03-08T03:04:11.556Z,95321.45
2019-03-08T03:06:38.596Z,95323.25
2019-03-08T03:09:05.960Z,95314.26
2019-03-08T03:11:34.612Z,95320.59
2019-03-08T03:14:02.022Z,95320.27
2019-03-08T03:16:29.051Z,95318.78
2019-03-08T03:18:56.099Z,95320.86
2019-03-08T03:21:23.145Z,95314.05
2019-03-08T03:23:50.195Z,95319.55
2019-03-08T03:26:17.575Z,95327.36
2019-03-08T03:28:44.903Z,95323.69
2019-03-08T03:31:13.153Z,95344.61
2019-03-08T03:33:40.455Z,95353.38
2019-03-08T03:36:07.732Z,95359.50
2019-03-08T03:38:35.041Z,95377.14
2019-03-08T03:41:02.076Z,95393.28
2019-03-08T03:43:29.296Z,95398.86
2019-03-08T03:45:56.596Z,95413.04
2019-03-08T03:48:23.721Z,95413.92
2019-03-08T03:50:50.748Z,95412.57
2019-03-08T03:53:18.148Z,95419.10
2019-03-08T03:55:45.180Z,95424.03
2019-03-08T03:58:12.223Z,95421.07
2019-03-08T04:00:39.531Z,95424.84
2019-03-08T04:03:06.852Z,95417.01
2019-03-08T04:05:33.885Z,95426.32
2019-03-08T04:08:00.932Z,95430.83
2019-03-08T04:10:27.984Z,95431.12
2019-03-08T04:12:55.368Z,95426.72
2019-03-08T04:15:22.418Z,95434.44
2019-03-08T04:17:49.450Z,95430.37
2019-03-08T04:20:16.746Z,95441.38
2019-03-08T04:22:44.084Z,95431.18
2019-03-08T04:25:11.124Z,95436.67
2019-03-08T04:27:38.476Z,95443.77
2019-03-08T04:30:05.756Z,95445.83
2019-03-08T04:32:33.048Z,95448.75
2019-03-08T04:35:00.420Z,95452.77
2019-03-08T04:37:27.451Z,95453.88
2019-03-08T04:39:54.745Z,95444.16
2019-03-08T04:42:21.848Z,95453.02
2019-03-08T04:44:48.902Z,95458.72
2019-03-08T04:47:19.180Z,95464.84
2019-03-08T04:49:46.471Z,95480.55
2019-03-08T04:52:13.359Z,95481.03
2019-03-08T04:54:40.647Z,95466.95
2019-03-08T04:57:07.963Z,95456.89
2019-03-08T04:59:35.017Z,95464.80
2019-03-08T05:02:02.052Z,95462.36
2019-03-08T05:04:29.097Z,95464.27
2019-03-08T05:06:56.204Z,95465.56
2019-03-08T05:09:23.595Z,95488.50
2019-03-08T05:11:50.969Z,95484.95
2019-03-08T05:14:18.065Z,95482.23
2019-03-08T05:16:45.104Z,95489.84
2019-03-08T05:19:12.506Z,95482.84
2019-03-08T05:21:39.876Z,95474.75
2019-03-08T05:24:07.082Z,95486.73
2019-03-08T05:26:34.468Z,95495.05
2019-03-08T05:29:01.748Z,95497.45
2019-03-08T05:31:29.092Z,95495.05
2019-03-08T05:33:56.123Z,95508.51
2019-03-08T05:36:24.917Z,95510.76
2019-03-08T05:38:55.852Z,95508.66
2019-03-08T05:41:23.227Z,95517.89
2019-03-08T05:43:50.387Z,95508.51
2019-03-08T05:46:17.711Z,95513.68
2019-03-08T05:48:45.068Z,95516.75
2019-03-08T05:51:12.446Z,95523.34
2019-03-08T05:53:39.780Z,95524.98
2019-03-08T05:56:07.000Z,95528.19
2019-03-08T05:58:34.438Z,95526.89
2019-03-08T06:01:01.448Z,95534.03
2019-03-08T06:03:28.753Z,95536.56
2019-03-08T06:05:56.146Z,95538.14
2019-03-08T06:08:23.177Z,95538.02
2019-03-08T06:10:50.564Z,95545.72
2019-03-08T06:13:17.772Z,95544.73
2019-03-08T06:15:45.153Z,95543.08
2019-03-08T06:18:12.184Z,95552.14
2019-03-08T06:20:39.231Z,95555.00
2019-03-08T06:23:06.625Z,95560.08
2019-03-08T06:25:34.007Z,95563.58
2019-03-08T06:28:01.248Z,95572.69
2019-03-08T06:30:28.515Z,95568.37
2019-03-08T06:32:55.834Z,95578.09
2019-03-08T06:35:23.193Z,95579.53
2019-03-08T06:37:50.527Z,95590.55
2019-03-08T06:40:17.583Z,95591.17
2019-03-08T06:42:44.933Z,95598.94
2019-03-08T06:45:12.303Z,95600.81
2019-03-08T06:47:39.599Z,95607.91
2019-03-08T06:50:06.929Z,95622.61
2019-03-08T06:52:33.949Z,95626.55
2019-03-08T06:55:01.305Z,95625.16
2019-03-08T06:57:34.079Z,95615.45
2019-03-08T07:00:01.436Z,95613.64
2019-03-08T07:02:30.448Z,95618.63
2019-03-08T07:04:57.904Z,95621.53
2019-03-08T07:07:25.259Z,95614.69
2019-03-08T07:09:52.624Z,95617.31
2019-03-08T07:12:19.673Z,95630.19
2019-03-08T07:14:47.026Z,95637.02
2019-03-08T07:17:14.355Z,95642.84
2019-03-08T07:19:41.717Z,95645.38
2019-03-08T07:22:09.700Z,95648.28
2019-03-08T07:24:36.732Z,95653.83
2019-03-08T07:27:04.040Z,95669.62
2019-03-08T07:29:31.336Z,95677.16
2019-03-08T07:31:58.692Z,95681.41
2019-03-08T07:34:45.307Z,95690.34
2019-03-08T07:37:12.354Z,95695.80
2019-03-08T07:39:39.387Z,95699.14
2019-03-08T07:42:07.652Z,95704.16
2019-03-08T07:44:35.437Z,95709.03
2019-03-08T07:47:02.742Z,95717.53
2019-03-08T07:49:29.774Z,95722.06
2019-03-08T07:51:57.096Z,95733.87
2019-03-08T07:54:24.129Z,95741.22
2019-03-08T07:56:51.515Z,95736.77
2019-03-08T07:59:18.851Z,95735.84
2019-03-08T08:01:46.204Z,95733.89
2019-03-08T08:04:13.615Z,95738.63
2019-03-08T08:06:40.886Z,95745.55
2019-03-08T08:09:08.272Z,95748.22
2019-03-08T08:11:35.827Z,95752.91
2019-03-08T08:14:02.890Z,95758.08
2019-03-08T08:16:29.930Z,95762.40
2019-03-08T08:18:57.280Z,95759.01
2019-03-08T08:21:24.318Z,95765.75
2019-03-08T08:23:51.709Z,95770.51
2019-03-08T08:26:19.060Z,95767.30
2019-03-08T08:28:49.968Z,95773.56
2019-03-08T08:31:15.134Z,95769.52
2019-03-08T08:33:42.538Z,95780.44
2019-03-08T08:36:09.908Z,95783.86
2019-03-08T08:38:37.306Z,95783.61
2019-03-08T08:41:04.343Z,95801.49
2019-03-08T08:43:31.394Z,95793.77
2019-03-08T08:45:58.697Z,95795.31
2019-03-08T08:48:26.078Z,95794.86
2019-03-08T08:50:53.118Z,95795.74
2019-03-08T08:53:20.418Z,95789.52
2019-03-08T08:55:47.978Z,95797.30
2019-03-08T08:58:15.373Z,95799.57
2019-03-08T09:00:42.421Z,95799.33
2019-03-08T09:03:09.779Z,95785.23
2019-03-08T09:05:37.151Z,95795.14
2019-03-08T09:08:04.485Z,95808.72
2019-03-08T09:13:25.409Z,95810.27
2019-03-08T09:15:52.785Z,95809.87
2019-03-08T09:18:19.838Z,95811.55
2019-03-08T09:20:47.184Z,95806.80
2019-03-08T09:23:14.410Z,95820.70
2019-03-08T09:25:41.777Z,95810.88
2019-03-08T09:28:09.129Z,95813.84
2019-03-08T09:30:36.485Z,95811.84
2019-03-08T09:33:03.862Z,95813.10
2019-03-08T09:35:31.537Z,95821.84
2019-03-08T09:37:58.871Z,95817.14
2019-03-08T09:40:25.926Z,95809.81
2019-03-08T09:42:52.958Z,95813.91
2019-03-08T09:45:20.004Z,95818.08
2019-03-08T09:47:50.257Z,95816.44
2019-03-08T09:50:17.316Z,95812.97
2019-03-08T09:52:44.732Z,95815.94
2019-03-08T09:55:12.062Z,95826.35
2019-03-08T09:57:39.952Z,95818.02
2019-03-08T10:00:07.533Z,95834.27
2019-03-08T10:02:34.870Z,95836.95
2019-03-08T10:05:02.226Z,95833.77
2019-03-08T10:07:29.535Z,95839.55
2019-03-08T10:09:56.951Z,95830.88
2019-03-08T10:12:25.022Z,95838.89
2019-03-08T10:14:52.359Z,95838.50
2019-03-08T10:17:19.734Z,95838.74
2019-03-08T10:19:47.069Z,95857.17
2019-03-08T10:22:14.427Z,95858.67
2019-03-08T10:24:41.478Z,95837.48
2019-03-08T10:27:08.523Z,95861.50
2019-03-08T10:29:35.568Z,95865.95
2019-03-08T10:32:02.604Z,95870.26
2019-03-08T10:34:29.969Z,95876.55
2019-03-08T10:36:57.005Z,95882.98
2019-03-08T10:39:24.050Z,95884.17
2019-03-08T10:41:51.420Z,95882.41
2019-03-08T10:44:18.533Z,95882.29
2019-03-08T10:46:45.586Z,95880.81
2019-03-08T10:49:12.616Z,95874.97
2019-03-08T10:51:39.925Z,95880.09
2019-03-08T10:54:07.277Z,95878.66
2019-03-08T10:56:34.331Z,95884.13
2019-03-08T10:59:01.371Z,95892.66
2019-03-08T11:01:29.033Z,95880.22
2019-03-08T11:03:56.408Z,95888.98
2019-03-08T11:06:23.850Z,95898.14
2019-03-08T11:08:50.960Z,95896.48
2019-03-08T11:11:18.357Z,95901.55
2019-03-08T11:13:45.712Z,95901.66
2019-03-08T11:16:13.065Z,95906.27
2019-03-08T11:18:40.273Z,95913.75
2019-03-08T11:21:07.668Z,95909.00
2019-03-08T11:23:35.023Z,95916.69
2019-03-08T11:26:02.385Z,95927.75
2019-03-08T11:28:29.416Z,95924.47
2019-03-08T11:30:56.729Z,95931.50
2019-03-08T11:33:24.040Z,95935.77
2019-03-08T11:35:51.395Z,95934.04
2019-03-08T11:38:18.750Z,95941.15
2019-03-08T11:40:46.118Z,95942.02
2019-03-08T11:43:13.400Z,95944.32
2019-03-08T11:45:41.032Z,95944.70
2019-03-08T11:48:08.063Z,95952.15
2019-03-08T11:50:35.732Z,95946.31
2019-03-08T11:53:02.780Z,95946.83
2019-03-08T11:55:29.814Z,95947.80
2019-03-08T11:57:57.195Z,95958.38
2019-03-08T12:00:24.228Z,95952.70
2019-03-08T12:02:51.581Z,95956.94
2019-03-08T12:05:18.614Z,95957.09
2019-03-08T12:07:47.337Z,95946.16
2019-03-08T12:10:14.874Z,95957.97
2019-03-08T12:12:41.920Z,95962.20
2019-03-08T12:15:08.955Z,95960.34
2019-03-08T12:17:36.346Z,95958.53
2019-03-08T12:20:03.681Z,95957.42
2019-03-08T12:22:31.257Z,95953.20
2019-03-08T12:24:58.561Z,95961.02
2019-03-08T12:27:25.614Z,95956.27
2019-03-08T12:29:52.647Z,95953.42
2019-03-08T12:32:21.069Z,95961.11
2019-03-08T12:34:48.107Z,95961.82
2019-03-08T12:37:15.473Z,95955.19
2019-03-08T12:39:43.152Z,95961.39
2019-03-08T12:42:10.207Z,95953.66
2019-03-08T12:44:37.244Z,95952.32
2019-03-08T12:47:04.586Z,95953.80
2019-03-08T12:49:31.623Z,95959.65
2019-03-08T12:51:58.681Z,95962.53
2019-03-08T12:54:25.717Z,95964.83
2019-03-08T12:56:52.766Z,95968.46
2019-03-08T12:59:19.798Z,95956.56
2019-03-08T13:01:47.182Z,95951.09
2019-03-08T13:04:14.786Z,95951.63
2019-03-08T13:06:42.097Z,95959.50
2019-03-08T13:09:09.452Z,95957.02
2019-03-08T13:11:37.015Z,95958.65
2019-03-08T13:14:04.073Z,95960.58
2019-03-08T13:16:31.113Z,95945.56
2019-03-08T13:18:58.158Z,95959.78
2019-03-08T13:21:25.193Z,95966.45
2019-03-08T13:23:52.558Z,95959.64
2019-03-08T13:26:19.589Z,95976.55
2019-03-08T13:28:46.637Z,95978.38
2019-03-08T13:31:14.009Z,95979.98
2019-03-08T13:33:41.385Z,95983.83
2019-03-08T13:36:08.721Z,95989.34
2019-03-08T13:38:36.076Z,95978.79
2019-03-08T13:41:03.447Z,95986.00
2019-03-08T13:43:30.784Z,95990.56
2019-03-08T13:45:58.140Z,95991.38
2019-03-08T13:48:25.512Z,95990.40
2019-03-08T13:50:52.847Z,96006.02
2019-03-08T13:53:19.900Z,96004.16
2019-03-08T13:55:47.252Z,96010.00
2019-03-08T13:58:15.633Z,96038.50
2019-03-08T14:00:44.319Z,96045.55
2019-03-08T14:03:11.672Z,96060.07
2019-03-08T14:05:38.705Z,96068.81
2019-03-08T14:08:05.756Z,96069.01
2019-03-08T14:10:33.126Z,96067.23
2019-03-08T14:13:00.424Z,96069.45
2019-03-08T14:15:27.749Z,96073.23
2019-03-08T14:17:55.308Z,96077.68
2019-03-08T14:20:22.665Z,96073.31
2019-03-08T14:22:50.004Z,96078.03
2019-03-08T14:25:17.376Z,96072.85
2019-03-08T14:27:44.673Z,96072.10
2019-03-08T14:30:11.721Z,96085.48
2019-03-08T14:32:39.011Z,96072.78
2019-03-08T14:35:06.369Z,96072.21
2019-03-08T14:37:33.728Z,96071.45
2019-03-08T14:40:00.850Z,96068.54
2019-03-08T14:42:28.561Z,96076.90
2019-03-08T14:44:55.610Z,96078.78
2019-03-08T14:47:24.064Z,96078.58
2019-03-08T14:49:55.342Z,96080.12
2019-03-08T14:52:21.546Z,96080.94
2019-03-08T14:54:49.109Z,96074.05
2019-03-08T14:57:26.848Z,96076.64
2019-03-08T14:59:44.880Z,96078.66
2019-03-08T15:02:13.715Z,96073.19
2019-03-08T15:04:40.933Z,96076.97
2019-03-08T15:07:08.248Z,96076.97
2019-03-08T15:09:35.766Z,96081.42
2019-03-08T15:12:03.150Z,96071.15
2019-03-08T15:14:33.511Z,96067.91
2019-03-08T15:16:58.933Z,96057.14
2019-03-08T15:19:26.355Z,96063.36
2019-03-08T15:21:53.692Z,96056.63
2019-03-08T15:24:21.047Z,96061.78
2019-03-08T15:26:48.081Z,96060.82
2019-03-08T15:29:15.128Z,96051.84
2019-03-08T15:31:42.157Z,96042.69
2019-03-08T15:34:09.753Z,96046.75
2019-03-08T15:36:37.104Z,96050.69
2019-03-08T15:39:04.157Z,96044.30
2019-03-08T15:41:32.817Z,96049.89
2019-03-08T15:43:59.867Z,96047.76
2019-03-08T15:46:27.021Z,96047.28
2019-03-08T15:48:54.939Z,96045.51
2019-03-08T15:51:25.360Z,96053.80
2019-03-08T15:53:51.375Z,96063.02
2019-03-08T15:56:18.712Z,96063.89
2019-03-08T15:58:46.069Z,96069.45
2019-03-08T16:01:13.116Z,96067.91
2019-03-08T16:03:40.330Z,96070.05
2019-03-08T16:06:07.827Z,96073.91
2019-03-08T16:08:35.895Z,96076.17
2019-03-08T16:11:04.276Z,96075.19
2019-03-08T16:13:31.648Z,96070.88
2019-03-08T16:15:58.695Z,96073.96
2019-03-08T16:18:25.728Z,96071.73
2019-03-08T16:20:53.100Z,96073.55
2019-03-08T16:23:21.149Z,96072.93
2019-03-08T16:25:48.855Z,96075.89
2019-03-08T16:28:16.294Z,96069.83
2019-03-08T16:30:47.430Z,96066.45
2019-03-08T16:33:12.480Z,96063.78
2019-03-08T16:35:39.877Z,96058.55
2019-03-08T16:38:06.910Z,96067.61
2019-03-08T16:40:34.277Z,96072.44
2019-03-08T16:43:03.764Z,96077.78
2019-03-08T16:45:30.069Z,96075.08
2019-03-08T16:47:57.100Z,96084.22
2019-03-08T16:50:25.991Z,96088.64
2019-03-08T16:53:00.493Z,96083.27
2019-03-08T16:55:33.621Z,96088.92
2019-03-08T16:58:03.109Z,96084.52
2019-03-08T17:00:31.302Z,96095.29
2019-03-08T17:02:58.539Z,96098.59
2019-03-08T17:05:26.036Z,96100.05
2019-03-08T17:08:03.473Z,96106.63
2019-03-08T17:10:30.812Z,96111.65
2019-03-08T17:12:58.087Z,96112.17
2019-03-08T17:15:29.670Z,96115.44
2019-03-08T17:17:58.225Z,96114.63
2019-03-08T17:20:25.387Z,96116.73
2019-03-08T17:22:53.863Z,96124.47
2019-03-08T17:25:24.812Z,96127.50
2019-03-08T17:27:52.153Z,96131.97
2019-03-08T17:30:20.616Z,96133.45
2019-03-08T17:32:47.674Z,96131.89
2019-03-08T17:35:14.969Z,96129.27
2019-03-08T17:37:42.892Z,96125.97
2019-03-08T17:40:09.927Z,96132.61
2019-03-08T17:42:36.982Z,96133.00
2019-03-08T17:45:04.322Z,96136.45
2019-03-08T17:47:31.702Z,96145.80
2019-03-08T17:49:58.724Z,96149.28
2019-03-08T17:52:26.082Z,96148.38
2019-03-08T17:54:53.381Z,96151.59
2019-03-08T17:57:20.634Z,96154.47
2019-03-08T17:59:47.733Z,96158.95
2019-03-08T18:02:15.193Z,96172.85
2019-03-08T18:04:42.565Z,96171.47
2019-03-08T18:07:09.617Z,96172.88
2019-03-08T18:09:36.949Z,96173.48
2019-03-08T18:12:03.996Z,96178.05
2019-03-08T18:14:43.848Z,96175.59
2019-03-08T18:17:10.901Z,96178.05
2019-03-08T18:19:37.932Z,96180.77
2019-03-08T18:22:05.297Z,96183.75
2019-03-08T18:24:32.439Z,96179.45
2019-03-08T18:26:59.483Z,96173.73
2019-03-08T18:29:26.853Z,96173.73
2019-03-08T18:31:54.872Z,96177.48
2019-03-08T18:34:22.179Z,96179.73
2019-03-08T18:36:49.277Z,96185.47
2019-03-08T18:39:16.358Z,96184.63
2019-03-08T18:41:49.129Z,96182.87
2019-03-08T18:44:25.644Z,96187.67
2019-03-08T18:46:54.030Z,96188.16
2019-03-08T18:49:25.730Z,96176.82
2019-03-08T18:51:54.139Z,96179.32
2019-03-08T18:54:23.372Z,96190.28
2019-03-08T18:56:50.952Z,96193.73
2019-03-08T18:59:18.183Z,96195.94
2019-03-08T19:04:25.369Z,96208.16
2019-03-08T19:09:32.150Z,96203.02
2019-03-08T19:12:00.649Z,96212.05
2019-03-08T19:14:40.138Z,96208.24
2019-03-08T19:19:54.436Z,96213.13
2019-03-08T19:27:48.968Z,96204.80
2019-03-08T19:30:23.032Z,96198.11
2019-03-08T19:32:50.383Z,96192.34
2019-03-08T19:35:17.929Z,96194.18
2019-03-08T19:40:28.489Z,96205.95
2019-03-08T19:42:55.676Z,96197.49
2019-03-08T19:45:26.872Z,96197.63
2019-03-08T19:47:54.439Z,96195.05
2019-03-08T19:58:34.583Z,96197.70
2019-03-08T20:01:08.680Z,96197.48
2019-03-08T20:03:39.699Z,96198.30
2019-03-08T20:06:06.783Z,96203.14
2019-03-08T20:08:34.045Z,96200.19
2019-03-08T20:11:11.764Z,96207.77
2019-03-08T20:13:38.887Z,96204.44
2019-03-08T20:16:06.442Z,96212.80
2019-03-08T20:18:33.967Z,96210.59
2019-03-08T20:21:01.732Z,96216.89
2019-03-08T20:23:33.999Z,96212.42
2019-03-08T20:26:02.201Z,96216.91
2019-03-08T20:28:34.138Z,96218.20
2019-03-08T20:31:14.627Z,96214.20
2019-03-08T20:33:42.356Z,96222.63
2019-03-08T20:36:09.645Z,96213.50
2019-03-08T20:38:36.857Z,96211.34
2019-03-08T20:49:09.624Z,96213.34
2019-03-08T20:51:46.718Z,96210.36
2019-03-08T20:56:50.412Z,96219.91
2019-03-08T20:59:19.223Z,96222.50
2019-03-08T21:01:50.561Z,96231.03
2019-03-08T21:04:17.895Z,96229.00
2019-03-08T21:06:45.320Z,96221.66
2019-03-08T21:09:12.563Z,96224.95
2019-03-08T21:11:41.018Z,96219.70
2019-03-08T21:14:08.064Z,96217.11
2019-03-08T21:16:43.519Z,96207.09
2019-03-08T21:19:14.776Z,96216.98
2019-03-08T21:21:43.179Z,96219.23
2019-03-08T21:24:10.471Z,96212.95
2019-03-08T21:26:45.758Z,96216.13
2019-03-08T21:29:17.375Z,96221.91
2019-03-08T21:37:11.265Z,96221.37
2019-03-08T21:39:38.729Z,96223.78
2019-03-08T21:42:06.141Z,96221.00
2019-03-08T21:44:33.879Z,96216.36
2019-03-08T21:47:00.954Z,96216.97
2019-03-08T21:49:28.477Z,96218.41
2019-03-08T21:51:55.870Z,96215.34
2019-03-08T21:54:22.979Z,96215.89
2019-03-08T21:56:50.981Z,96219.91
2019-03-08T21:59:18.625Z,96214.97
2019-03-08T22:01:46.081Z,96211.88
2019-03-08T22:04:13.115Z,96202.56
2019-03-08T22:06:40.473Z,96215.53
2019-03-08T22:09:07.504Z,96208.98
2019-03-08T22:11:36.528Z,96205.70
2019-03-08T22:14:03.969Z,96202.98
2019-03-08T22:16:31.348Z,96202.30
2019-03-08T22:18:58.356Z,96194.86
2019-03-08T22:21:25.411Z,96193.08
2019-03-08T22:23:52.761Z,96187.08
2019-03-08T22:26:20.117Z,96188.44
2019-03-08T22:28:47.791Z,96184.95
2019-03-08T22:31:15.148Z,96173.97
2019-03-08T22:33:42.451Z,96166.13
2019-03-08T22:36:09.581Z,96167.06
2019-03-08T22:38:36.992Z,96166.45
2019-03-08T22:41:04.347Z,96160.95
2019-03-08T22:43:32.628Z,96167.62
2019-03-08T22:45:59.672Z,96168.62
2019-03-08T22:48:26.704Z,96172.50
2019-03-08T22:50:53.758Z,96173.67
2019-03-08T22:53:21.120Z,96175.22
2019-03-08T22:55:49.399Z,96173.23
2019-03-08T22:58:16.713Z,96180.88
2019-03-08T23:00:44.112Z,96180.05
2019-03-08T23:03:13.107Z,96169.83
2019-03-08T23:05:40.493Z,96161.98
2019-03-08T23:08:07.811Z,96158.45
2019-03-08T23:10:35.103Z,96154.05
2019-03-08T23:13:02.413Z,96150.59
2019-03-08T23:15:29.456Z,96144.41
2019-03-08T23:17:56.492Z,96141.47
2019-03-08T23:20:23.871Z,96138.88
2019-03-08T23:22:51.248Z,96133.32
2019-03-08T23:25:19.535Z,96126.81
2019-03-08T23:27:47.010Z,96119.59
2019-03-08T23:30:14.317Z,96125.30
2019-03-08T23:32:41.673Z,96121.30
2019-03-08T23:35:09.042Z,96122.95
2019-03-08T23:37:36.380Z,96119.20
2019-03-08T23:40:03.660Z,96119.58
2019-03-08T23:42:31.008Z,96114.19
2019-03-08T23:44:58.043Z,96114.45
2019-03-08T23:47:26.434Z,96114.09
2019-03-08T23:49:53.792Z,96106.41
2019-03-08T23:52:20.839Z,96117.23
2019-03-08T23:54:48.114Z,96112.71
2019-03-08T23:57:15.532Z,96105.92
2019-03-08T23:59:42.565Z,96102.30
